createdAt,value
2023-03-19T00:02:16.577Z,3.73
2023-03-19T00:04:46.251Z,3.36
2023-03-19T00:07:14.767Z,3.20
2023-03-19T00:09:42.492Z,3.59
2023-03-19T00:12:12.154Z,3.84
2023-03-19T00:14:39.177Z,3.68
2023-03-19T00:17:06.530Z,3.72
2023-03-19T00:19:33.538Z,3.97
2023-03-19T00:22:00.647Z,3.94
2023-03-19T00:24:29.044Z,4.07
2023-03-19T00:26:56.807Z,4.15
2023-03-19T00:29:25.825Z,3.86
2023-03-19T00:31:53.184Z,4.13
2023-03-19T00:34:20.380Z,4.21
2023-03-19T00:36:49.383Z,4.32
2023-03-19T00:39:16.689Z,4.19
2023-03-19T00:41:50.621Z,4.05
2023-03-19T00:44:19.312Z,4.40
2023-03-19T00:46:46.985Z,4.38
2023-03-19T00:49:14.519Z,4.36
2023-03-19T00:51:44.087Z,4.50
2023-03-19T00:54:12.984Z,4.51
2023-03-19T00:56:40.529Z,4.56
2023-03-19T00:59:07.920Z,4.59
2023-03-19T01:01:35.178Z,4.65
2023-03-19T01:04:02.391Z,4.11
2023-03-19T01:06:29.501Z,4.08
2023-03-19T01:08:56.690Z,4.12
2023-03-19T01:11:25.862Z,3.98
2023-03-19T01:13:53.722Z,4.28
2023-03-19T01:16:20.925Z,4.27
2023-03-19T01:18:48.115Z,4.05
2023-03-19T01:21:15.281Z,4.08
2023-03-19T01:23:46.514Z,4.35
2023-03-19T01:26:13.942Z,4.12
2023-03-19T01:28:42.015Z,4.40
2023-03-19T01:31:10.478Z,4.39
2023-03-19T01:34:04.971Z,4.44
2023-03-19T01:36:40.974Z,4.49
2023-03-19T01:39:10.714Z,4.51
2023-03-19T01:41:38.072Z,4.50
2023-03-19T01:44:26.756Z,4.60
2023-03-19T01:47:32.806Z,4.59
2023-03-19T01:50:40.617Z,4.62
2023-03-19T01:53:33.254Z,4.60
2023-03-19T01:56:19.887Z,4.67
2023-03-19T01:59:20.463Z,4.68
2023-03-19T02:02:24.110Z,4.65
2023-03-19T02:04:58.307Z,4.61
2023-03-19T02:07:25.715Z,4.19
2023-03-19T02:09:53.326Z,3.66
2023-03-19T02:12:20.735Z,3.10
2023-03-19T02:14:47.958Z,2.97
2023-03-19T02:17:15.235Z,2.66
2023-03-19T02:19:57.610Z,2.93
2023-03-19T02:22:29.211Z,2.42
2023-03-19T02:25:20.121Z,2.46
2023-03-19T02:27:47.592Z,2.50
2023-03-19T02:30:34.152Z,2.74
2023-03-19T02:33:06.412Z,2.89
2023-03-19T02:35:35.523Z,3.02
2023-03-19T02:38:05.404Z,3.03
2023-03-19T02:40:38.667Z,3.17
2023-03-19T02:43:06.496Z,3.25
2023-03-19T02:45:33.733Z,3.18
2023-03-19T02:48:01.170Z,3.35
2023-03-19T02:50:28.702Z,3.36
2023-03-19T02:52:55.943Z,3.43
2023-03-19T02:55:23.178Z,3.34
2023-03-19T02:57:50.404Z,3.43
2023-03-19T03:00:18.881Z,3.48
2023-03-19T03:02:46.250Z,3.30
2023-03-19T03:05:14.565Z,3.44
2023-03-19T03:07:43.976Z,3.43
2023-03-19T03:10:12.118Z,3.55
2023-03-19T03:12:39.327Z,3.55
2023-03-19T03:15:08.591Z,2.82
2023-03-19T03:17:56.494Z,2.12
2023-03-19T03:20:24.887Z,1.97
2023-03-19T03:22:53.685Z,2.07
2023-03-19T03:25:21.310Z,2.04
2023-03-19T03:27:48.577Z,1.42
2023-03-19T03:30:16.296Z,1.00
2023-03-19T03:32:44.071Z,1.10
2023-03-19T03:35:11.674Z,1.06
2023-03-19T03:37:39.848Z,1.49
2023-03-19T03:40:08.586Z,1.41
2023-03-19T03:42:37.535Z,1.40
2023-03-19T03:45:08.285Z,1.23
2023-03-19T03:47:36.006Z,1.20
2023-03-19T03:50:05.345Z,1.46
2023-03-19T03:52:34.244Z,1.51
2023-03-19T03:55:01.810Z,1.78
2023-03-19T03:57:29.554Z,1.66
2023-03-19T03:59:57.088Z,1.89
2023-03-19T04:02:25.319Z,2.03
2023-03-19T04:04:52.753Z,2.07
2023-03-19T04:07:20.790Z,2.25
2023-03-19T04:09:54.182Z,2.18
2023-03-19T04:12:21.961Z,2.28
2023-03-19T04:14:49.534Z,2.14
2023-03-19T04:17:17.120Z,1.58
2023-03-19T04:19:44.349Z,1.31
2023-03-19T04:22:11.473Z,1.38
2023-03-19T04:24:38.702Z,1.56
2023-03-19T04:27:07.355Z,1.30
2023-03-19T04:29:35.594Z,0.83
2023-03-19T04:32:03.697Z,0.65
2023-03-19T04:34:31.225Z,0.96
2023-03-19T04:36:58.888Z,1.30
2023-03-19T04:39:26.548Z,1.49
2023-03-19T04:41:53.673Z,1.66
2023-03-19T04:44:32.529Z,1.76
2023-03-19T04:47:01.995Z,1.84
2023-03-19T04:49:34.878Z,1.94
2023-03-19T04:52:02.067Z,1.96
2023-03-19T04:54:29.817Z,2.06
2023-03-19T04:56:57.924Z,2.25
2023-03-19T04:59:29.114Z,2.19
2023-03-19T05:01:56.898Z,2.06
2023-03-19T05:04:25.230Z,2.43
2023-03-19T05:06:55.784Z,2.47
2023-03-19T05:09:23.364Z,2.46
2023-03-19T05:11:51.847Z,2.65
2023-03-19T05:14:21.411Z,2.65
2023-03-19T05:17:15.733Z,2.53
2023-03-19T05:19:55.934Z,2.46
2023-03-19T05:22:24.072Z,2.58
2023-03-19T05:24:52.519Z,2.72
2023-03-19T05:27:20.976Z,2.98
2023-03-19T05:30:09.801Z,3.05
2023-03-19T05:32:57.049Z,3.02
2023-03-19T05:35:32.088Z,2.79
2023-03-19T05:38:01.135Z,2.72
2023-03-19T05:40:28.692Z,1.93
2023-03-19T05:42:57.549Z,1.63
2023-03-19T05:45:28.209Z,1.64
2023-03-19T05:47:59.027Z,1.62
2023-03-19T05:50:26.377Z,1.67
2023-03-19T05:53:12.495Z,1.41
2023-03-19T05:55:43.775Z,1.31
2023-03-19T05:58:11.832Z,1.40
2023-03-19T06:00:39.433Z,1.51
2023-03-19T06:03:06.824Z,1.61
2023-03-19T06:05:52.490Z,1.80
2023-03-19T06:08:32.990Z,2.20
2023-03-19T06:11:11.533Z,2.54
2023-03-19T06:13:39.346Z,2.77
2023-03-19T06:16:12.844Z,3.00
2023-03-19T06:18:50.418Z,3.23
2023-03-19T06:21:17.532Z,3.24
2023-03-19T06:23:44.874Z,3.20
2023-03-19T06:26:15.973Z,3.33
2023-03-19T06:28:48.989Z,3.59
2023-03-19T06:31:18.826Z,3.76
2023-03-19T06:33:56.548Z,3.90
2023-03-19T06:36:28.823Z,4.06
2023-03-19T06:38:56.834Z,4.35
2023-03-19T06:41:25.268Z,4.54
2023-03-19T06:43:58.659Z,4.84
2023-03-19T06:46:27.602Z,5.06
2023-03-19T06:48:55.284Z,5.24
2023-03-19T06:51:22.828Z,5.42
2023-03-19T06:53:51.074Z,5.46
2023-03-19T06:56:19.707Z,5.68
2023-03-19T06:58:52.111Z,5.73
2023-03-19T07:01:19.813Z,5.82
2023-03-19T07:03:48.346Z,5.82
2023-03-19T07:06:16.686Z,6.02
2023-03-19T07:08:46.892Z,6.05
2023-03-19T07:11:21.031Z,6.14
2023-03-19T07:13:49.270Z,6.34
2023-03-19T07:16:18.866Z,6.40
2023-03-19T07:18:49.046Z,6.21
2023-03-19T07:21:19.061Z,6.25
2023-03-19T07:23:48.048Z,6.22
2023-03-19T07:26:18.604Z,6.01
2023-03-19T07:28:46.438Z,6.36
2023-03-19T07:31:15.237Z,6.46
2023-03-19T07:33:43.439Z,5.62
2023-03-19T07:36:11.305Z,6.43
2023-03-19T07:38:38.532Z,6.33
2023-03-19T07:41:05.625Z,6.46
2023-03-19T07:43:32.862Z,6.79
2023-03-19T07:46:02.712Z,7.19
2023-03-19T07:48:34.434Z,7.20
2023-03-19T07:51:02.532Z,7.16
2023-03-19T07:53:31.778Z,7.37
2023-03-19T07:56:00.424Z,7.10
2023-03-19T07:58:31.512Z,7.27
2023-03-19T08:01:00.384Z,7.46
2023-03-19T08:03:28.720Z,7.65
2023-03-19T08:05:58.162Z,7.69
2023-03-19T08:08:27.003Z,6.82
2023-03-19T08:10:56.137Z,7.53
2023-03-19T08:13:24.458Z,7.91
2023-03-19T08:15:55.200Z,8.15
2023-03-19T08:18:23.694Z,8.16
2023-03-19T08:20:51.523Z,8.24
2023-03-19T08:23:20.780Z,8.55
2023-03-19T08:25:51.938Z,8.56
2023-03-19T08:28:20.816Z,8.69
2023-03-19T08:30:49.310Z,8.87
2023-03-19T08:33:17.530Z,8.93
2023-03-19T08:35:46.028Z,9.07
2023-03-19T08:38:14.391Z,9.36
2023-03-19T08:40:44.210Z,9.55
2023-03-19T08:43:11.738Z,9.66
2023-03-19T08:45:40.459Z,9.79
2023-03-19T08:48:08.073Z,10.06
2023-03-19T08:50:37.816Z,9.98
2023-03-19T08:53:07.356Z,9.92
2023-03-19T08:55:36.055Z,10.10
2023-03-19T08:58:03.690Z,9.83
2023-03-19T09:00:32.573Z,9.72
2023-03-19T09:03:00.356Z,9.68
2023-03-19T09:05:31.913Z,9.93
2023-03-19T09:08:00.100Z,10.31
2023-03-19T09:10:30.483Z,10.52
2023-03-19T09:13:00.457Z,9.81
2023-03-19T09:15:28.711Z,10.73
2023-03-19T09:17:57.349Z,10.52
2023-03-19T09:20:26.501Z,10.87
2023-03-19T09:22:54.710Z,10.92
2023-03-19T09:25:23.850Z,11.34
2023-03-19T09:27:51.913Z,11.37
2023-03-19T09:30:22.699Z,11.58
2023-03-19T09:32:50.763Z,11.62
2023-03-19T09:35:19.361Z,11.86
2023-03-19T09:37:49.821Z,12.07
2023-03-19T09:40:32.010Z,12.30
2023-03-19T09:43:34.333Z,12.36
2023-03-19T09:46:06.961Z,12.41
2023-03-19T09:48:43.391Z,12.51
2023-03-19T09:51:18.996Z,12.53
2023-03-19T09:54:13.747Z,12.24
2023-03-19T09:56:41.636Z,12.34
2023-03-19T09:59:11.841Z,11.78
2023-03-19T10:01:47.873Z,12.60
2023-03-19T10:04:47.596Z,12.76
2023-03-19T10:07:35.728Z,12.22
2023-03-19T10:10:33.012Z,12.31
2023-03-19T10:13:12.541Z,12.75
2023-03-19T10:15:44.956Z,12.97
2023-03-19T10:18:30.524Z,13.08
2023-03-19T10:21:05.322Z,13.21
2023-03-19T10:23:54.115Z,13.36
2023-03-19T10:26:30.014Z,13.30
2023-03-19T10:29:11.322Z,13.28
2023-03-19T10:31:50.684Z,13.36
2023-03-19T10:34:36.687Z,13.59
2023-03-19T10:37:14.642Z,13.70
2023-03-19T10:39:48.875Z,13.63
2023-03-19T10:42:47.614Z,13.71
2023-03-19T10:45:39.351Z,13.73
2023-03-19T10:48:16.388Z,13.92
2023-03-19T10:50:52.639Z,14.00
2023-03-19T10:53:36.532Z,14.26
2023-03-19T10:56:26.688Z,14.53
2023-03-19T10:58:58.244Z,14.49
2023-03-19T11:01:40.713Z,14.62
2023-03-19T11:04:17.724Z,14.82
2023-03-19T11:06:50.360Z,14.64
2023-03-19T11:09:27.350Z,14.76
2023-03-19T11:11:59.026Z,14.84
2023-03-19T11:14:36.096Z,14.73
2023-03-19T11:17:24.019Z,14.84
2023-03-19T11:19:54.570Z,15.06
2023-03-19T11:22:34.063Z,15.12
2023-03-19T11:25:04.048Z,15.23
2023-03-19T11:27:35.746Z,15.18
2023-03-19T11:30:08.449Z,15.35
2023-03-19T11:33:08.272Z,15.43
2023-03-19T11:36:26.640Z,15.20
2023-03-19T11:39:18.669Z,15.42
2023-03-19T11:41:58.078Z,15.59
2023-03-19T11:45:08.981Z,15.70
2023-03-19T11:48:13.691Z,15.45
2023-03-19T11:50:53.818Z,15.68
2023-03-19T11:53:29.928Z,15.81
2023-03-19T11:56:19.744Z,15.99
2023-03-19T11:59:45.271Z,16.16
2023-03-19T12:02:18.643Z,16.15
2023-03-19T12:04:56.122Z,16.30
2023-03-19T12:07:52.713Z,16.18
2023-03-19T12:10:58.202Z,16.37
2023-03-19T12:13:43.934Z,16.45
2023-03-19T12:16:26.349Z,16.66
2023-03-19T12:19:42.289Z,16.42
2023-03-19T12:22:19.164Z,16.46
2023-03-19T12:25:01.791Z,16.55
2023-03-19T12:27:39.659Z,16.58
2023-03-19T12:30:13.383Z,16.71
2023-03-19T12:32:55.984Z,16.83
2023-03-19T12:35:32.494Z,16.79
2023-03-19T12:38:19.856Z,16.79
2023-03-19T12:41:11.180Z,16.84
2023-03-19T12:44:04.142Z,16.88
2023-03-19T12:46:39.310Z,16.97
2023-03-19T12:49:12.719Z,16.93
2023-03-19T12:51:49.603Z,17.00
2023-03-19T12:54:28.647Z,16.98
2023-03-19T12:57:00.023Z,16.98
2023-03-19T12:59:44.241Z,16.13
2023-03-19T13:02:45.765Z,16.26
2023-03-19T13:05:34.653Z,16.51
2023-03-19T13:08:14.752Z,16.64
2023-03-19T13:10:41.966Z,16.71
2023-03-19T13:13:35.414Z,17.03
2023-03-19T13:16:38.577Z,17.13
2023-03-19T13:19:30.321Z,17.09
2023-03-19T13:22:02.179Z,17.08
2023-03-19T13:24:37.224Z,17.12
2023-03-19T13:27:07.827Z,17.34
2023-03-19T13:29:37.632Z,17.45
2023-03-19T13:32:27.460Z,17.46
2023-03-19T13:35:29.568Z,17.28
2023-03-19T13:38:02.245Z,17.51
2023-03-19T13:40:42.896Z,17.54
2023-03-19T13:43:29.147Z,17.53
2023-03-19T13:46:17.644Z,17.60
2023-03-19T13:48:47.853Z,17.60
2023-03-19T13:51:18.190Z,17.70
2023-03-19T13:54:01.371Z,17.81
2023-03-19T13:56:30.579Z,17.59
2023-03-19T13:59:28.133Z,17.72
2023-03-19T14:01:56.195Z,17.72
2023-03-19T14:04:51.019Z,17.79
2023-03-19T14:07:22.038Z,17.74
2023-03-19T14:10:04.683Z,17.73
2023-03-19T14:12:35.227Z,17.83
2023-03-19T14:15:09.382Z,17.84
2023-03-19T14:17:42.314Z,17.70
2023-03-19T14:20:18.181Z,17.68
2023-03-19T14:23:12.972Z,17.79
2023-03-19T14:25:55.808Z,17.78
2023-03-19T14:28:37.077Z,17.90
2023-03-19T14:31:06.031Z,18.02
2023-03-19T14:33:45.066Z,18.05
2023-03-19T14:36:21.819Z,18.04
2023-03-19T14:39:27.667Z,18.01
2023-03-19T14:42:44.546Z,18.07
2023-03-19T14:45:32.322Z,18.14
2023-03-19T14:48:26.300Z,18.04
2023-03-19T14:51:22.243Z,18.14
2023-03-19T14:53:56.026Z,18.07
2023-03-19T14:56:31.717Z,17.77
2023-03-19T14:59:03.838Z,18.15
2023-03-19T15:01:33.621Z,17.98
2023-03-19T15:04:04.475Z,18.21
2023-03-19T15:06:35.125Z,17.23
2023-03-19T15:09:02.793Z,17.94
2023-03-19T15:12:00.903Z,17.89
2023-03-19T15:14:50.652Z,17.87
2023-03-19T15:17:27.857Z,17.84
2023-03-19T15:19:58.593Z,17.70
2023-03-19T15:22:30.826Z,18.05
2023-03-19T15:25:07.626Z,18.05
2023-03-19T15:27:34.923Z,18.05
2023-03-19T15:30:13.600Z,18.28
2023-03-19T15:32:54.297Z,18.25
2023-03-19T15:35:36.658Z,18.33
2023-03-19T15:38:07.997Z,18.47
2023-03-19T15:40:37.202Z,18.40
2023-03-19T15:43:05.406Z,18.42
2023-03-19T15:45:34.541Z,18.25
2023-03-19T15:48:26.726Z,18.48
2023-03-19T15:51:01.530Z,18.26
2023-03-19T15:53:32.831Z,18.51
2023-03-19T15:56:02.619Z,18.50
2023-03-19T15:58:33.852Z,18.50
2023-03-19T16:01:01.699Z,18.51
2023-03-19T16:03:34.242Z,18.51
2023-03-19T16:06:05.471Z,18.51
2023-03-19T16:08:33.539Z,18.36
2023-03-19T16:11:34.850Z,18.44
2023-03-19T16:14:15.175Z,18.38
2023-03-19T16:16:42.614Z,18.25
2023-03-19T16:19:36.488Z,18.38
2023-03-19T16:22:25.771Z,18.16
2023-03-19T16:24:53.940Z,18.12
2023-03-19T16:27:30.741Z,17.77
2023-03-19T16:29:59.978Z,18.00
2023-03-19T16:32:29.692Z,17.94
2023-03-19T16:35:21.239Z,17.76
2023-03-19T16:37:50.234Z,17.46
2023-03-19T16:40:17.716Z,17.70
2023-03-19T16:42:45.911Z,17.58
2023-03-19T16:45:19.150Z,17.48
2023-03-19T16:47:49.192Z,17.31
2023-03-19T16:50:18.958Z,17.28
2023-03-19T16:52:48.033Z,17.05
2023-03-19T16:55:23.305Z,17.15
2023-03-19T16:57:56.949Z,17.10
2023-03-19T17:00:25.990Z,17.08
2023-03-19T17:02:56.257Z,16.98
2023-03-19T17:05:25.710Z,16.81
2023-03-19T17:07:55.695Z,16.64
2023-03-19T17:10:27.218Z,16.52
2023-03-19T17:12:56.505Z,16.19
2023-03-19T17:15:28.325Z,16.28
2023-03-19T17:17:56.432Z,15.71
2023-03-19T17:20:51.475Z,16.02
2023-03-19T17:23:19.281Z,15.81
2023-03-19T17:25:47.139Z,15.90
2023-03-19T17:28:14.755Z,15.83
2023-03-19T17:30:43.000Z,15.85
2023-03-19T17:33:30.889Z,15.21
2023-03-19T17:35:59.210Z,15.69
2023-03-19T17:38:33.232Z,15.59
2023-03-19T17:41:00.700Z,15.46
2023-03-19T17:43:28.049Z,15.33
2023-03-19T17:45:56.026Z,15.26
2023-03-19T17:48:27.034Z,15.25
2023-03-19T17:51:01.706Z,15.19
2023-03-19T17:53:29.458Z,15.12
2023-03-19T17:55:56.588Z,14.94
2023-03-19T17:58:23.848Z,14.83
2023-03-19T18:00:52.314Z,14.79
2023-03-19T18:03:22.726Z,14.70
2023-03-19T18:05:52.654Z,14.62
2023-03-19T18:08:23.923Z,14.29
2023-03-19T18:10:51.875Z,14.45
2023-03-19T18:13:19.047Z,14.32
2023-03-19T18:15:46.944Z,14.26
2023-03-19T18:18:21.164Z,14.01
2023-03-19T18:20:48.847Z,14.06
2023-03-19T18:23:16.914Z,13.95
2023-03-19T18:25:45.478Z,13.88
2023-03-19T18:28:13.384Z,13.05
2023-03-19T18:30:42.805Z,12.79
2023-03-19T18:33:26.564Z,12.76
2023-03-19T18:35:55.538Z,12.27
2023-03-19T18:38:25.400Z,12.36
2023-03-19T18:40:53.715Z,12.57
2023-03-19T18:43:21.054Z,12.78
2023-03-19T18:45:53.784Z,12.85
2023-03-19T18:48:22.864Z,12.82
2023-03-19T18:50:50.534Z,12.87
2023-03-19T18:53:18.153Z,12.74
2023-03-19T18:55:46.439Z,12.72
2023-03-19T18:58:34.578Z,12.54
2023-03-19T19:01:04.479Z,11.96
2023-03-19T19:03:33.735Z,10.90
2023-03-19T19:06:00.872Z,10.66
2023-03-19T19:08:29.934Z,10.67
2023-03-19T19:11:02.203Z,10.84
2023-03-19T19:13:53.291Z,11.12
2023-03-19T19:16:37.605Z,11.17
2023-03-19T19:19:14.592Z,11.21
2023-03-19T19:21:41.714Z,11.33
2023-03-19T19:24:08.958Z,11.43
2023-03-19T19:26:37.455Z,11.40
2023-03-19T19:29:05.483Z,11.43
2023-03-19T19:31:34.424Z,11.32
2023-03-19T19:34:01.886Z,11.43
2023-03-19T19:36:29.443Z,11.43
2023-03-19T19:38:56.639Z,11.28
2023-03-19T19:41:26.933Z,11.35
2023-03-19T19:43:55.946Z,11.26
2023-03-19T19:46:24.158Z,10.41
2023-03-19T19:48:51.383Z,10.36
2023-03-19T19:51:21.713Z,10.50
2023-03-19T19:53:49.086Z,10.27
2023-03-19T19:56:22.217Z,9.83
2023-03-19T19:58:52.173Z,10.19
2023-03-19T20:01:23.144Z,9.99
2023-03-19T20:03:52.145Z,11.15
2023-03-19T20:06:19.901Z,11.41
2023-03-19T20:08:50.680Z,11.21
2023-03-19T20:11:20.711Z,11.06
2023-03-19T20:13:51.722Z,10.99
2023-03-19T20:16:20.869Z,10.80
2023-03-19T20:18:51.119Z,10.90
2023-03-19T20:21:18.213Z,10.78
2023-03-19T20:23:46.051Z,10.74
2023-03-19T20:26:19.457Z,10.62
2023-03-19T20:28:47.261Z,10.62
2023-03-19T20:31:33.147Z,10.53
2023-03-19T20:34:00.484Z,10.47
2023-03-19T20:36:27.588Z,10.48
2023-03-19T20:38:54.790Z,10.38
2023-03-19T20:41:24.313Z,10.43
2023-03-19T20:43:52.997Z,10.34
2023-03-19T20:46:21.857Z,10.35
2023-03-19T20:48:49.305Z,10.23
2023-03-19T20:51:25.153Z,10.27
2023-03-19T20:53:53.070Z,10.29
2023-03-19T20:56:24.866Z,10.05
2023-03-19T20:58:52.080Z,10.19
2023-03-19T21:01:19.829Z,10.02
2023-03-19T21:03:47.419Z,9.99
2023-03-19T21:06:22.838Z,9.95
2023-03-19T21:08:58.877Z,10.00
2023-03-19T21:11:42.216Z,9.80
2023-03-19T21:14:16.314Z,8.96
2023-03-19T21:16:43.845Z,8.95
2023-03-19T21:19:12.861Z,8.29
2023-03-19T21:21:42.314Z,8.37
2023-03-19T21:24:17.806Z,8.40
2023-03-19T21:26:46.612Z,8.58
2023-03-19T21:29:34.336Z,8.73
2023-03-19T21:32:01.633Z,8.78
2023-03-19T21:34:29.250Z,8.76
2023-03-19T21:36:56.527Z,8.93
2023-03-19T21:39:23.735Z,8.99
2023-03-19T21:41:50.996Z,9.07
2023-03-19T21:44:22.538Z,9.02
2023-03-19T21:46:49.881Z,8.95
2023-03-19T21:49:17.342Z,8.97
2023-03-19T21:51:44.510Z,8.54
2023-03-19T21:54:11.574Z,8.97
2023-03-19T21:56:41.685Z,9.00
2023-03-19T21:59:18.577Z,9.02
2023-03-19T22:01:45.789Z,9.03
2023-03-19T22:04:13.114Z,8.98
2023-03-19T22:06:40.415Z,9.07
2023-03-19T22:09:07.637Z,8.94
2023-03-19T22:11:38.245Z,9.04
2023-03-19T22:14:24.667Z,8.97
2023-03-19T22:16:54.095Z,8.77
2023-03-19T22:19:22.072Z,8.79
2023-03-19T22:21:49.785Z,8.74
2023-03-19T22:24:17.018Z,8.67
2023-03-19T22:26:44.453Z,8.43
2023-03-19T22:29:18.461Z,8.37
2023-03-19T22:31:48.314Z,8.45
2023-03-19T22:34:17.929Z,8.49
2023-03-19T22:36:45.575Z,8.45
2023-03-19T22:39:13.762Z,8.22
2023-03-19T22:41:46.226Z,8.38
2023-03-19T22:44:31.602Z,8.28
2023-03-19T22:47:01.079Z,8.21
2023-03-19T22:49:29.914Z,8.14
2023-03-19T22:51:58.004Z,8.21
2023-03-19T22:54:25.670Z,8.20
2023-03-19T22:56:52.770Z,7.81
2023-03-19T22:59:20.440Z,8.33
2023-03-19T23:01:48.213Z,8.33
2023-03-19T23:04:27.172Z,8.06
2023-03-19T23:06:56.505Z,8.27
2023-03-19T23:09:31.896Z,8.31
2023-03-19T23:12:00.168Z,8.12
2023-03-19T23:14:30.833Z,8.18
2023-03-19T23:17:03.415Z,8.14
2023-03-19T23:19:33.706Z,8.14
2023-03-19T23:22:03.266Z,8.04
2023-03-19T23:24:31.100Z,8.10
2023-03-19T23:27:00.005Z,8.06
2023-03-19T23:29:31.312Z,7.81
2023-03-19T23:31:58.854Z,7.95
2023-03-19T23:34:28.737Z,7.81
2023-03-19T23:36:56.888Z,7.84
2023-03-19T23:39:24.731Z,7.72
2023-03-19T23:41:57.095Z,7.87
2023-03-19T23:44:24.739Z,7.72
2023-03-19T23:46:52.640Z,7.41
2023-03-19T23:49:33.015Z,7.37
2023-03-19T23:52:02.086Z,7.03
2023-03-19T23:54:31.342Z,7.31
2023-03-19T23:57:01.687Z,7.20
2023-03-19T23:59:33.758Z,7.17
